sensor_id;sensor_type;location;lat;lon;timestamp;pressure;altitude;pressure_sealevel;temperature;humidity
45541;BME280;31265;49.680;8.608;2022-07-01T00:02:26;100529.72;;;16.94;100.00
45541;BME280;31265;49.680;8.608;2022-07-01T00:04:54;100537.44;;;16.84;100.00
45541;BME280;31265;49.680;8.608;2022-07-01T00:07:42;100528.22;;;16.71;100.00
45541;BME280;31265;49.680;8.608;2022-07-01T00:10:10;100537.25;;;16.70;100.00
45541;BME280;31265;49.680;8.608;2022-07-01T00:12:38;100532.50;;;16.51;100.00
45541;BME280;31265;49.680;8.608;2022-07-01T00:15:07;100532.84;;;16.45;100.00
45541;BME280;31265;49.680;8.608;2022-07-01T00:17:36;100529.56;;;16.27;100.00
45541;BME280;31265;49.680;8.608;2022-07-01T00:20:05;100528.94;;;16.07;100.00
45541;BME280;31265;49.680;8.608;2022-07-01T00:22:34;100519.00;;;16.16;100.00
45541;BME280;31265;49.680;8.608;2022-07-01T00:25:05;100513.50;;;15.97;100.00
45541;BME280;31265;49.680;8.608;2022-07-01T00:27:36;100513.88;;;15.81;100.00
45541;BME280;31265;49.680;8.608;2022-07-01T00:30:06;100515.81;;;15.79;100.00
45541;BME280;31265;49.680;8.608;2022-07-01T00:32:35;100520.84;;;15.61;100.00
45541;BME280;31265;49.680;8.608;2022-07-01T00:35:04;100524.06;;;15.67;100.00
45541;BME280;31265;49.680;8.608;2022-07-01T00:37:32;100534.84;;;15.61;100.00
45541;BME280;31265;49.680;8.608;2022-07-01T00:40:00;100528.97;;;15.57;100.00
45541;BME280;31265;49.680;8.608;2022-07-01T00:42:29;100537.06;;;15.53;100.00
45541;BME280;31265;49.680;8.608;2022-07-01T00:44:57;100537.84;;;15.34;100.00
45541;BME280;31265;49.680;8.608;2022-07-01T00:47:26;100542.41;;;15.29;100.00
45541;BME280;31265;49.680;8.608;2022-07-01T00:49:54;100550.94;;;15.31;100.00
45541;BME280;31265;49.680;8.608;2022-07-01T00:52:22;100548.41;;;15.35;100.00
45541;BME280;31265;49.680;8.608;2022-07-01T00:54:56;100557.41;;;15.43;100.00
45541;BME280;31265;49.680;8.608;2022-07-01T00:57:31;100550.31;;;15.52;100.00
45541;BME280;31265;49.680;8.608;2022-07-01T01:00:01;100547.53;;;15.42;100.00
45541;BME280;31265;49.680;8.608;2022-07-01T01:02:30;100565.50;;;15.39;100.00
45541;BME280;31265;49.680;8.608;2022-07-01T01:04:58;100574.63;;;15.30;100.00
45541;BME280;31265;49.680;8.608;2022-07-01T01:07:27;100570.22;;;15.27;100.00
45541;BME280;31265;49.680;8.608;2022-07-01T01:09:55;100576.09;;;15.31;100.00
45541;BME280;31265;49.680;8.608;2022-07-01T01:12:24;100576.84;;;15.22;100.00
45541;BME280;31265;49.680;8.608;2022-07-01T01:14:54;100574.94;;;15.24;100.00
45541;BME280;31265;49.680;8.608;2022-07-01T01:17:24;100580.09;;;15.18;100.00
45541;BME280;31265;49.680;8.608;2022-07-01T01:19:52;100574.63;;;15.11;100.00
45541;BME280;31265;49.680;8.608;2022-07-01T01:22:21;100583.63;;;15.19;100.00
45541;BME280;31265;49.680;8.608;2022-07-01T01:24:49;100590.81;;;15.02;100.00
45541;BME280;31265;49.680;8.608;2022-07-01T01:27:18;100594.34;;;15.13;100.00
45541;BME280;31265;49.680;8.608;2022-07-01T01:29:46;100593.47;;;15.00;100.00
45541;BME280;31265;49.680;8.608;2022-07-01T01:32:14;100594.34;;;15.03;100.00
45541;BME280;31265;49.680;8.608;2022-07-01T01:34:42;100595.81;;;15.04;100.00
45541;BME280;31265;49.680;8.608;2022-07-01T01:37:10;100600.81;;;15.05;100.00
45541;BME280;31265;49.680;8.608;2022-07-01T01:39:39;100598.16;;;14.88;100.00
45541;BME280;31265;49.680;8.608;2022-07-01T01:42:08;100597.91;;;15.03;100.00
45541;BME280;31265;49.680;8.608;2022-07-01T01:44:35;100602.00;;;15.02;100.00
45541;BME280;31265;49.680;8.608;2022-07-01T01:47:04;100606.25;;;14.84;100.00
45541;BME280;31265;49.680;8.608;2022-07-01T01:49:33;100600.22;;;14.88;100.00
45541;BME280;31265;49.680;8.608;2022-07-01T01:52:02;100594.34;;;14.93;100.00
45541;BME280;31265;49.680;8.608;2022-07-01T01:54:30;100595.50;;;14.90;100.00
45541;BME280;31265;49.680;8.608;2022-07-01T01:56:59;100584.66;;;14.94;100.00
45541;BME280;31265;49.680;8.608;2022-07-01T01:59:28;100582.44;;;15.02;100.00
45541;BME280;31265;49.680;8.608;2022-07-01T02:01:56;100580.09;;;14.99;100.00
45541;BME280;31265;49.680;8.608;2022-07-01T02:04:24;100579.50;;;15.00;100.00
45541;BME280;31265;49.680;8.608;2022-07-01T02:06:53;100571.84;;;15.11;100.00
45541;BME280;31265;49.680;8.608;2022-07-01T02:09:21;100577.16;;;15.16;100.00
45541;BME280;31265;49.680;8.608;2022-07-01T02:11:49;100576.53;;;15.18;100.00
45541;BME280;31265;49.680;8.608;2022-07-01T02:14:18;100568.16;;;14.98;100.00
45541;BME280;31265;49.680;8.608;2022-07-01T02:16:47;100578.34;;;15.03;100.00
45541;BME280;31265;49.680;8.608;2022-07-01T02:19:15;100582.44;;;15.02;100.00
45541;BME280;31265;49.680;8.608;2022-07-01T02:21:43;100585.06;;;15.00;100.00
45541;BME280;31265;49.680;8.608;2022-07-01T02:24:11;100581.69;;;15.02;100.00
45541;BME280;31265;49.680;8.608;2022-07-01T02:26:39;100572.28;;;14.97;100.00
45541;BME280;31265;49.680;8.608;2022-07-01T02:29:07;100575.97;;;15.00;100.00
45541;BME280;31265;49.680;8.608;2022-07-01T02:31:36;100566.69;;;14.97;100.00
45541;BME280;31265;49.680;8.608;2022-07-01T02:34:05;100572.75;;;14.94;100.00
45541;BME280;31265;49.680;8.608;2022-07-01T02:36:33;100558.47;;;14.99;100.00
45541;BME280;31265;49.680;8.608;2022-07-01T02:39:01;100566.53;;;14.95;100.00
45541;BME280;31265;49.680;8.608;2022-07-01T02:41:29;100567.00;;;15.01;100.00
45541;BME280;31265;49.680;8.608;2022-07-01T02:43:57;100569.19;;;15.03;100.00
45541;BME280;31265;49.680;8.608;2022-07-01T02:46:25;100562.56;;;14.98;100.00
45541;BME280;31265;49.680;8.608;2022-07-01T02:48:55;100558.78;;;15.03;100.00
45541;BME280;31265;49.680;8.608;2022-07-01T02:51:23;100551.53;;;15.10;100.00
45541;BME280;31265;49.680;8.608;2022-07-01T02:53:51;100549.94;;;14.97;100.00
45541;BME280;31265;49.680;8.608;2022-07-01T02:56:19;100550.81;;;14.90;100.00
45541;BME280;31265;49.680;8.608;2022-07-01T02:58:47;100553.03;;;14.92;100.00
45541;BME280;31265;49.680;8.608;2022-07-01T03:01:15;100557.13;;;14.91;100.00
45541;BME280;31265;49.680;8.608;2022-07-01T03:03:43;100547.28;;;14.90;100.00
45541;BME280;31265;49.680;8.608;2022-07-01T03:06:12;100539.63;;;14.90;100.00
45541;BME280;31265;49.680;8.608;2022-07-01T03:08:40;100527.44;;;14.86;100.00
45541;BME280;31265;49.680;8.608;2022-07-01T03:11:08;100532.28;;;14.85;100.00
45541;BME280;31265;49.680;8.608;2022-07-01T03:13:41;100527.16;;;14.81;100.00
45541;BME280;31265;49.680;8.608;2022-07-01T03:16:10;100525.97;;;14.75;100.00
45541;BME280;31265;49.680;8.608;2022-07-01T03:18:38;100525.97;;;14.75;100.00
45541;BME280;31265;49.680;8.608;2022-07-01T03:21:06;100528.75;;;14.75;100.00
45541;BME280;31265;49.680;8.608;2022-07-01T03:23:35;100539.94;;;14.75;100.00
45541;BME280;31265;49.680;8.608;2022-07-01T03:26:04;100566.13;;;14.89;100.00
45541;BME280;31265;49.680;8.608;2022-07-01T03:28:32;100552.00;;;14.87;100.00
45541;BME280;31265;49.680;8.608;2022-07-01T03:31:00;100552.41;;;14.83;100.00
45541;BME280;31265;49.680;8.608;2022-07-01T03:33:29;100558.75;;;14.84;100.00
45541;BME280;31265;49.680;8.608;2022-07-01T03:35:59;100553.59;;;14.80;100.00
45541;BME280;31265;49.680;8.608;2022-07-01T03:38:27;100553.03;;;14.82;100.00
45541;BME280;31265;49.680;8.608;2022-07-01T03:40:56;100548.16;;;14.82;100.00
45541;BME280;31265;49.680;8.608;2022-07-01T03:43:24;100552.88;;;14.80;100.00
45541;BME280;31265;49.680;8.608;2022-07-01T03:45:53;100559.91;;;14.81;100.00
45541;BME280;31265;49.680;8.608;2022-07-01T03:48:21;100557.72;;;14.79;100.00
45541;BME280;31265;49.680;8.608;2022-07-01T03:50:49;100562.72;;;14.81;100.00
45541;BME280;31265;49.680;8.608;2022-07-01T03:53:17;100569.94;;;14.84;100.00
45541;BME280;31265;49.680;8.608;2022-07-01T03:56:04;100571.69;;;14.89;100.00
45541;BME280;31265;49.680;8.608;2022-07-01T03:58:33;100573.47;;;14.84;100.00
45541;BME280;31265;49.680;8.608;2022-07-01T04:01:01;100564.34;;;14.84;100.00
45541;BME280;31265;49.680;8.608;2022-07-01T04:03:29;100566.84;;;14.80;100.00
45541;BME280;31265;49.680;8.608;2022-07-01T04:05:57;100568.03;;;14.77;100.00
45541;BME280;31265;49.680;8.608;2022-07-01T04:08:26;100562.59;;;14.79;100.00
45541;BME280;31265;49.680;8.608;2022-07-01T04:10:54;100576.09;;;14.73;100.00
45541;BME280;31265;49.680;8.608;2022-07-01T04:13:25;100571.84;;;14.72;100.00
45541;BME280;31265;49.680;8.608;2022-07-01T04:15:58;100580.66;;;14.78;100.00
45541;BME280;31265;49.680;8.608;2022-07-01T04:18:27;100599.31;;;14.75;100.00
45541;BME280;31265;49.680;8.608;2022-07-01T04:20:55;100620.94;;;14.84;100.00
45541;BME280;31265;49.680;8.608;2022-07-01T04:23:42;100623.91;;;14.87;100.00
45541;BME280;31265;49.680;8.608;2022-07-01T04:26:10;100617.72;;;14.88;100.00
45541;BME280;31265;49.680;8.608;2022-07-01T04:28:59;100618.31;;;14.87;100.00
45541;BME280;31265;49.680;8.608;2022-07-01T04:31:27;100616.81;;;14.86;100.00
45541;BME280;31265;49.680;8.608;2022-07-01T04:33:55;100623.59;;;14.82;100.00
45541;BME280;31265;49.680;8.608;2022-07-01T04:36:23;100618.72;;;14.83;100.00
45541;BME280;31265;49.680;8.608;2022-07-01T04:38:51;100624.16;;;14.81;100.00
45541;BME280;31265;49.680;8.608;2022-07-01T04:41:20;100628.59;;;14.84;100.00
45541;BME280;31265;49.680;8.608;2022-07-01T04:44:07;100634.44;;;14.78;100.00
45541;BME280;31265;49.680;8.608;2022-07-01T04:46:35;100657.41;;;14.77;100.00
45541;BME280;31265;49.680;8.608;2022-07-01T04:49:04;100649.19;;;14.79;100.00
45541;BME280;31265;49.680;8.608;2022-07-01T04:51:32;100649.47;;;14.83;100.00
45541;BME280;31265;49.680;8.608;2022-07-01T04:54:02;100642.97;;;14.80;100.00
45541;BME280;31265;49.680;8.608;2022-07-01T04:56:31;100645.53;;;14.86;100.00
45541;BME280;31265;49.680;8.608;2022-07-01T04:59:00;100644.03;;;14.85;100.00
45541;BME280;31265;49.680;8.608;2022-07-01T05:01:30;100650.97;;;14.94;100.00
45541;BME280;31265;49.680;8.608;2022-07-01T05:03:58;100656.41;;;15.01;100.00
45541;BME280;31265;49.680;8.608;2022-07-01T05:06:27;100659.66;;;15.08;100.00
45541;BME280;31265;49.680;8.608;2022-07-01T05:08:55;100669.81;;;15.22;100.00
45541;BME280;31265;49.680;8.608;2022-07-01T05:11:23;100667.75;;;15.23;100.00
45541;BME280;31265;49.680;8.608;2022-07-01T05:13:51;100668.63;;;15.35;100.00
45541;BME280;31265;49.680;8.608;2022-07-01T05:16:19;100663.81;;;15.45;100.00
45541;BME280;31265;49.680;8.608;2022-07-01T05:18:48;100658.19;;;15.55;100.00
45541;BME280;31265;49.680;8.608;2022-07-01T05:21:34;100672.03;;;15.63;100.00
45541;BME280;31265;49.680;8.608;2022-07-01T05:24:20;100687.19;;;15.60;100.00
45541;BME280;31265;49.680;8.608;2022-07-01T05:26:48;100702.50;;;15.68;100.00
45541;BME280;31265;49.680;8.608;2022-07-01T05:29:16;100700.75;;;15.73;100.00
45541;BME280;31265;49.680;8.608;2022-07-01T05:31:44;100714.44;;;15.88;100.00
45541;BME280;31265;49.680;8.608;2022-07-01T05:34:14;100696.44;;;15.91;100.00
45541;BME280;31265;49.680;8.608;2022-07-01T05:36:42;100698.66;;;16.03;100.00
45541;BME280;31265;49.680;8.608;2022-07-01T05:39:10;100694.94;;;16.10;100.00
45541;BME280;31265;49.680;8.608;2022-07-01T05:41:39;100699.78;;;16.09;100.00
45541;BME280;31265;49.680;8.608;2022-07-01T05:44:07;100710.06;;;16.26;100.00
45541;BME280;31265;49.680;8.608;2022-07-01T05:46:35;100706.34;;;16.43;100.00
45541;BME280;31265;49.680;8.608;2022-07-01T05:49:03;100702.66;;;16.41;100.00
45541;BME280;31265;49.680;8.608;2022-07-01T05:51:33;100717.97;;;16.49;100.00
45541;BME280;31265;49.680;8.608;2022-07-01T05:54:01;100712.63;;;16.12;100.00
45541;BME280;31265;49.680;8.608;2022-07-01T05:56:29;100723.03;;;16.22;100.00
45541;BME280;31265;49.680;8.608;2022-07-01T05:58:57;100733.94;;;16.27;100.00
45541;BME280;31265;49.680;8.608;2022-07-01T06:01:25;100741.94;;;16.11;100.00
45541;BME280;31265;49.680;8.608;2022-07-01T06:03:53;100744.28;;;16.15;100.00
45541;BME280;31265;49.680;8.608;2022-07-01T06:06:21;100734.69;;;16.18;100.00
45541;BME280;31265;49.680;8.608;2022-07-01T06:08:51;100714.94;;;16.26;100.00
45541;BME280;31265;49.680;8.608;2022-07-01T06:11:19;100712.72;;;16.24;100.00
45541;BME280;31265;49.680;8.608;2022-07-01T06:13:47;100719.94;;;16.27;100.00
45541;BME280;31265;49.680;8.608;2022-07-01T06:16:15;100720.81;;;16.40;100.00
45541;BME280;31265;49.680;8.608;2022-07-01T06:18:43;100730.03;;;16.52;100.00
45541;BME280;31265;49.680;8.608;2022-07-01T06:21:11;100730.03;;;16.52;100.00
45541;BME280;31265;49.680;8.608;2022-07-01T06:23:42;100741.84;;;16.50;100.00
45541;BME280;31265;49.680;8.608;2022-07-01T06:26:11;100739.19;;;16.52;100.00
45541;BME280;31265;49.680;8.608;2022-07-01T06:28:39;100729.00;;;16.57;100.00
45541;BME280;31265;49.680;8.608;2022-07-01T06:31:07;100729.22;;;16.30;100.00
45541;BME280;31265;49.680;8.608;2022-07-01T06:33:36;100735.25;;;16.26;100.00
45541;BME280;31265;49.680;8.608;2022-07-01T06:36:04;100735.00;;;16.22;100.00
45541;BME280;31265;49.680;8.608;2022-07-01T06:38:32;100733.84;;;16.06;100.00
45541;BME280;31265;49.680;8.608;2022-07-01T06:41:00;100720.59;;;15.97;100.00
45541;BME280;31265;49.680;8.608;2022-07-01T06:43:47;100726.91;;;15.97;100.00
45541;BME280;31265;49.680;8.608;2022-07-01T06:46:15;100724.75;;;15.86;100.00
45541;BME280;31265;49.680;8.608;2022-07-01T06:48:43;100724.75;;;15.86;100.00
45541;BME280;31265;49.680;8.608;2022-07-01T06:51:11;100725.16;;;16.02;100.00
45541;BME280;31265;49.680;8.608;2022-07-01T06:53:40;100729.84;;;16.09;100.00
45541;BME280;31265;49.680;8.608;2022-07-01T06:56:08;100736.66;;;15.96;100.00
45541;BME280;31265;49.680;8.608;2022-07-01T06:58:36;100743.00;;;15.87;100.00
45541;BME280;31265;49.680;8.608;2022-07-01T07:01:07;100743.56;;;15.66;100.00
45541;BME280;31265;49.680;8.608;2022-07-01T07:03:35;100748.28;;;15.63;100.00
45541;BME280;31265;49.680;8.608;2022-07-01T07:06:04;100742.53;;;15.61;100.00
45541;BME280;31265;49.680;8.608;2022-07-01T07:08:32;100748.56;;;15.58;100.00
45541;BME280;31265;49.680;8.608;2022-07-01T07:11:00;100757.72;;;15.78;100.00
45541;BME280;31265;49.680;8.608;2022-07-01T07:13:29;100761.81;;;15.67;100.00
45541;BME280;31265;49.680;8.608;2022-07-01T07:15:58;100781.13;;;15.82;100.00
45541;BME280;31265;49.680;8.608;2022-07-01T07:18:27;100787.59;;;15.85;100.00
45541;BME280;31265;49.680;8.608;2022-07-01T07:20:55;100791.44;;;15.99;100.00
45541;BME280;31265;49.680;8.608;2022-07-01T07:23:26;100793.34;;;15.97;100.00
45541;BME280;31265;49.680;8.608;2022-07-01T07:25:54;100808.22;;;15.99;100.00
45541;BME280;31265;49.680;8.608;2022-07-01T07:28:23;100801.16;;;16.08;100.00
45541;BME280;31265;49.680;8.608;2022-07-01T07:30:51;100813.97;;;15.91;100.00
45541;BME280;31265;49.680;8.608;2022-07-01T07:33:19;100808.84;;;15.88;100.00
45541;BME280;31265;49.680;8.608;2022-07-01T07:35:49;100803.50;;;15.92;100.00
45541;BME280;31265;49.680;8.608;2022-07-01T07:38:17;100794.69;;;15.76;100.00
45541;BME280;31265;49.680;8.608;2022-07-01T07:40:45;100792.31;;;15.82;100.00
45541;BME280;31265;49.680;8.608;2022-07-01T07:43:13;100796.00;;;15.95;100.00
45541;BME280;31265;49.680;8.608;2022-07-01T07:45:41;100784.81;;;15.95;100.00
45541;BME280;31265;49.680;8.608;2022-07-01T07:48:09;100774.22;;;15.83;100.00
45541;BME280;31265;49.680;8.608;2022-07-01T07:50:38;100773.19;;;16.08;100.00
45541;BME280;31265;49.680;8.608;2022-07-01T07:53:07;100773.59;;;16.24;100.00
45541;BME280;31265;49.680;8.608;2022-07-01T07:55:36;100769.31;;;16.32;100.00
45541;BME280;31265;49.680;8.608;2022-07-01T07:58:05;100767.56;;;16.27;100.00
45541;BME280;31265;49.680;8.608;2022-07-01T08:00:33;100781.03;;;16.50;100.00
45541;BME280;31265;49.680;8.608;2022-07-01T08:03:06;100779.41;;;16.57;100.00
45541;BME280;31265;49.680;8.608;2022-07-01T08:05:34;100779.28;;;16.55;100.00
45541;BME280;31265;49.680;8.608;2022-07-01T08:08:03;100776.47;;;16.55;100.00
45541;BME280;31265;49.680;8.608;2022-07-01T08:10:33;100778.25;;;16.50;100.00
45541;BME280;31265;49.680;8.608;2022-07-01T08:13:02;100775.09;;;16.66;100.00
45541;BME280;31265;49.680;8.608;2022-07-01T08:15:32;100777.16;;;16.65;100.00
45541;BME280;31265;49.680;8.608;2022-07-01T08:18:00;100768.19;;;16.67;100.00
45541;BME280;31265;49.680;8.608;2022-07-01T08:20:28;100772.84;;;16.74;100.00
45541;BME280;31265;49.680;8.608;2022-07-01T08:22:56;100761.22;;;16.68;100.00
45541;BME280;31265;49.680;8.608;2022-07-01T08:25:25;100759.59;;;16.74;100.00
45541;BME280;31265;49.680;8.608;2022-07-01T08:28:03;100753.84;;;16.82;100.00
45541;BME280;31265;49.680;8.608;2022-07-01T08:30:31;100756.06;;;17.05;100.00
45541;BME280;31265;49.680;8.608;2022-07-01T08:32:59;100765.00;;;17.13;100.00
45541;BME280;31265;49.680;8.608;2022-07-01T08:35:28;100781.13;;;16.82;100.00
45541;BME280;31265;49.680;8.608;2022-07-01T08:37:57;100798.59;;;17.23;100.00
45541;BME280;31265;49.680;8.608;2022-07-01T08:40:26;100804.59;;;17.39;100.00
45541;BME280;31265;49.680;8.608;2022-07-01T08:42:56;100814.94;;;17.36;100.00
45541;BME280;31265;49.680;8.608;2022-07-01T08:45:28;100824.84;;;17.28;100.00
45541;BME280;31265;49.680;8.608;2022-07-01T08:47:58;100827.03;;;17.08;100.00
45541;BME280;31265;49.680;8.608;2022-07-01T08:50:29;100842.97;;;17.05;100.00
45541;BME280;31265;49.680;8.608;2022-07-01T08:52:57;100846.00;;;16.78;100.00
45541;BME280;31265;49.680;8.608;2022-07-01T08:55:27;100837.59;;;16.68;100.00
45541;BME280;31265;49.680;8.608;2022-07-01T08:57:55;100824.97;;;16.58;100.00
45541;BME280;31265;49.680;8.608;2022-07-01T09:00:30;100821.56;;;16.59;100.00
45541;BME280;31265;49.680;8.608;2022-07-01T09:03:00;100834.56;;;16.45;100.00
45541;BME280;31265;49.680;8.608;2022-07-01T09:05:29;100843.72;;;16.36;100.00
45541;BME280;31265;49.680;8.608;2022-07-01T09:07:59;100848.75;;;16.27;100.00
45541;BME280;31265;49.680;8.608;2022-07-01T09:10:29;100845.06;;;16.25;100.00
45541;BME280;31265;49.680;8.608;2022-07-01T09:13:04;100840.03;;;16.13;100.00
45541;BME280;31265;49.680;8.608;2022-07-01T09:15:35;100850.22;;;16.19;100.00
45541;BME280;31265;49.680;8.608;2022-07-01T09:18:05;100863.47;;;16.18;100.00
45541;BME280;31265;49.680;8.608;2022-07-01T09:20:36;100856.69;;;16.21;100.00
45541;BME280;31265;49.680;8.608;2022-07-01T09:23:07;100855.50;;;16.24;100.00
45541;BME280;31265;49.680;8.608;2022-07-01T09:25:38;100843.72;;;16.36;100.00
45541;BME280;31265;49.680;8.608;2022-07-01T09:28:20;100843.53;;;16.63;100.00
45541;BME280;31265;49.680;8.608;2022-07-01T09:30:52;100855.78;;;16.38;100.00
45541;BME280;31265;49.680;8.608;2022-07-01T09:33:22;100852.53;;;16.42;100.00
45541;BME280;31265;49.680;8.608;2022-07-01T09:35:52;100842.47;;;16.68;100.00
45541;BME280;31265;49.680;8.608;2022-07-01T09:38:22;100843.47;;;16.92;100.00
45541;BME280;31265;49.680;8.608;2022-07-01T09:41:00;100847.38;;;17.39;100.00
45541;BME280;31265;49.680;8.608;2022-07-01T09:43:30;100856.16;;;17.77;100.00
45541;BME280;31265;49.680;8.608;2022-07-01T09:46:00;100858.28;;;18.31;100.00
45541;BME280;31265;49.680;8.608;2022-07-01T09:48:43;100858.03;;;18.72;100.00
45541;BME280;31265;49.680;8.608;2022-07-01T09:51:12;100859.44;;;19.53;100.00
45541;BME280;31265;49.680;8.608;2022-07-01T09:53:43;100862.72;;;20.11;100.00
45541;BME280;31265;49.680;8.608;2022-07-01T09:56:11;100874.16;;;20.01;100.00
45541;BME280;31265;49.680;8.608;2022-07-01T09:58:40;100871.38;;;19.77;100.00
45541;BME280;31265;49.680;8.608;2022-07-01T10:01:13;100876.31;;;20.03;100.00
45541;BME280;31265;49.680;8.608;2022-07-01T10:03:42;100877.91;;;19.68;100.00
45541;BME280;31265;49.680;8.608;2022-07-01T10:06:24;100880.84;;;19.47;100.00
45541;BME280;31265;49.680;8.608;2022-07-01T10:09:03;100885.84;;;19.48;100.00
45541;BME280;31265;49.680;8.608;2022-07-01T10:11:57;100887.69;;;20.16;100.00
45541;BME280;31265;49.680;8.608;2022-07-01T10:14:30;100878.56;;;20.81;100.00
45541;BME280;31265;49.680;8.608;2022-07-01T10:17:00;100887.78;;;20.95;100.00
45541;BME280;31265;49.680;8.608;2022-07-01T10:19:28;100890.00;;;22.37;82.44
45541;BME280;31265;49.680;8.608;2022-07-01T10:22:00;100890.78;;;22.69;80.92
45541;BME280;31265;49.680;8.608;2022-07-01T10:24:28;100890.44;;;21.88;85.37
45541;BME280;31265;49.680;8.608;2022-07-01T10:27:00;100886.06;;;21.43;82.38
45541;BME280;31265;49.680;8.608;2022-07-01T10:29:30;100885.94;;;21.27;89.50
45541;BME280;31265;49.680;8.608;2022-07-01T10:32:02;100895.03;;;21.26;91.70
45541;BME280;31265;49.680;8.608;2022-07-01T10:34:36;100899.44;;;20.76;88.64
45541;BME280;31265;49.680;8.608;2022-07-01T10:37:06;100896.03;;;20.91;92.84
45541;BME280;31265;49.680;8.608;2022-07-01T10:39:56;100894.91;;;21.24;83.56
45541;BME280;31265;49.680;8.608;2022-07-01T10:42:29;100901.75;;;21.60;82.04
45541;BME280;31265;49.680;8.608;2022-07-01T10:45:04;100891.50;;;21.53;75.86
45541;BME280;31265;49.680;8.608;2022-07-01T10:47:34;100899.13;;;22.36;73.32
45541;BME280;31265;49.680;8.608;2022-07-01T10:50:10;100894.28;;;22.84;70.30
45541;BME280;31265;49.680;8.608;2022-07-01T10:52:40;100897.88;;;23.00;60.53
45541;BME280;31265;49.680;8.608;2022-07-01T10:55:36;100885.53;;;23.41;65.18
45541;BME280;31265;49.680;8.608;2022-07-01T10:58:04;100885.59;;;22.80;69.78
45541;BME280;31265;49.680;8.608;2022-07-01T11:00:34;100886.00;;;22.42;68.59
45541;BME280;31265;49.680;8.608;2022-07-01T11:03:13;100896.56;;;22.26;70.11
45541;BME280;31265;49.680;8.608;2022-07-01T11:05:43;100882.38;;;20.23;88.54
45541;BME280;31265;49.680;8.608;2022-07-01T11:08:11;100884.91;;;21.35;86.01
45541;BME280;31265;49.680;8.608;2022-07-01T11:10:51;100878.19;;;22.57;76.21
45541;BME280;31265;49.680;8.608;2022-07-01T11:13:20;100879.00;;;23.05;68.97
45541;BME280;31265;49.680;8.608;2022-07-01T11:15:48;100890.44;;;22.77;60.78
45541;BME280;31265;49.680;8.608;2022-07-01T11:18:18;100891.06;;;22.30;59.36
45541;BME280;31265;49.680;8.608;2022-07-01T11:20:47;100886.88;;;22.76;58.30
45541;BME280;31265;49.680;8.608;2022-07-01T11:23:15;100884.16;;;22.79;63.39
45541;BME280;31265;49.680;8.608;2022-07-01T11:25:47;100879.44;;;21.94;67.88
45541;BME280;31265;49.680;8.608;2022-07-01T11:28:15;100886.81;;;22.15;69.20
45541;BME280;31265;49.680;8.608;2022-07-01T11:30:43;100873.66;;;22.06;67.69
45541;BME280;31265;49.680;8.608;2022-07-01T11:33:11;100878.75;;;22.53;61.88
45541;BME280;31265;49.680;8.608;2022-07-01T11:35:42;100871.28;;;24.07;56.57
45541;BME280;31265;49.680;8.608;2022-07-01T11:38:28;100871.56;;;25.06;49.18
45541;BME280;31265;49.680;8.608;2022-07-01T11:41:19;100870.03;;;25.03;46.30
45541;BME280;31265;49.680;8.608;2022-07-01T11:43:47;100865.06;;;24.46;48.16
45541;BME280;31265;49.680;8.608;2022-07-01T11:46:15;100858.69;;;25.23;45.74
45541;BME280;31265;49.680;8.608;2022-07-01T11:48:45;100857.84;;;25.61;47.78
45541;BME280;31265;49.680;8.608;2022-07-01T11:51:19;100845.84;;;25.84;46.97
45541;BME280;31265;49.680;8.608;2022-07-01T11:53:49;100848.56;;;26.02;46.53
45541;BME280;31265;49.680;8.608;2022-07-01T11:56:27;100859.06;;;27.70;39.06
45541;BME280;31265;49.680;8.608;2022-07-01T11:58:56;100860.75;;;28.09;39.07
45541;BME280;31265;49.680;8.608;2022-07-01T12:01:27;100865.19;;;27.30;40.20
45541;BME280;31265;49.680;8.608;2022-07-01T12:03:57;100857.91;;;26.51;40.04
45541;BME280;31265;49.680;8.608;2022-07-01T12:06:28;100843.75;;;26.07;42.40
45541;BME280;31265;49.680;8.608;2022-07-01T12:08:56;100841.19;;;27.39;41.69
45541;BME280;31265;49.680;8.608;2022-07-01T12:11:26;100845.25;;;27.32;41.51
45541;BME280;31265;49.680;8.608;2022-07-01T12:13:55;100843.22;;;27.91;39.08
45541;BME280;31265;49.680;8.608;2022-07-01T12:16:24;100843.50;;;27.19;41.00
45541;BME280;31265;49.680;8.608;2022-07-01T12:18:54;100844.63;;;26.35;41.40
45541;BME280;31265;49.680;8.608;2022-07-01T12:21:23;100852.81;;;25.59;40.19
45541;BME280;31265;49.680;8.608;2022-07-01T12:24:06;100851.56;;;24.64;44.04
45541;BME280;31265;49.680;8.608;2022-07-01T12:26:34;100852.22;;;24.45;43.73
45541;BME280;31265;49.680;8.608;2022-07-01T12:29:03;100851.09;;;23.80;47.93
45541;BME280;31265;49.680;8.608;2022-07-01T12:31:33;100854.50;;;23.11;48.96
45541;BME280;31265;49.680;8.608;2022-07-01T12:34:01;100851.75;;;23.29;48.74
45541;BME280;31265;49.680;8.608;2022-07-01T12:36:29;100843.16;;;22.18;57.81
45541;BME280;31265;49.680;8.608;2022-07-01T12:39:03;100847.56;;;21.78;59.00
45541;BME280;31265;49.680;8.608;2022-07-01T12:41:34;100830.59;;;21.92;57.82
45541;BME280;31265;49.680;8.608;2022-07-01T12:44:06;100845.94;;;23.09;57.99
45541;BME280;31265;49.680;8.608;2022-07-01T12:46:47;100840.66;;;24.03;52.33
45541;BME280;31265;49.680;8.608;2022-07-01T12:49:19;100833.34;;;24.89;44.27
45541;BME280;31265;49.680;8.608;2022-07-01T12:51:48;100832.94;;;25.81;43.72
45541;BME280;31265;49.680;8.608;2022-07-01T12:54:29;100836.25;;;26.17;42.38
45541;BME280;31265;49.680;8.608;2022-07-01T12:57:00;100828.59;;;25.16;43.11
45541;BME280;31265;49.680;8.608;2022-07-01T12:59:28;100837.16;;;24.40;48.77